Time;durP1;ratioP1;P1;durP2;ratioP2;P2;SDS_P1;SDS_P2;PMS_P1;PMS_P2;Temp;Humidity;BMP_temperature;BMP_pressure;BME280_temperature;BME280_humidity;BME280_pressure;Samples;Min_cycle;Max_cycle;Signal;HPM_P1;HPM_P2
2021/12/21 00:00:13;;;;;;;;;;;;;;;-1.48;92.76;100876.28;5596352;31;33632;-83
2021/12/21 00:03:16;;;;;;;;;;;;;;;-1.49;92.44;100871.97;5596603;31;33818;-84
2021/12/21 00:06:19;;;;;;;;;;;;;;;-1.45;90.40;100871.00;5601530;31;34525;-84
2021/12/21 00:09:21;;;;;;;;;;;;;;;-1.36;88.83;100885.44;5597515;31;33800;-83
2021/12/21 00:12:27;;;;;;;;;;;;;;;-1.29;87.50;100882.56;5596549;31;33702;-83
2021/12/21 00:19:47;;;;;;;;;;;;;;;-1.29;85.85;100882.56;5597103;31;33670;-83
2021/12/21 00:25:42;;;;;;;;;;;;;;;-1.46;85.85;100884.87;5596380;31;33887;-84
2021/12/21 00:28:55;;;;;;;;;;;;;;;-1.23;83.64;100875.47;5595618;31;33265;-83
2021/12/21 00:31:58;;;;;;;;;;;;;;;-1.25;83.07;100904.94;5595010;31;33864;-83
2021/12/21 00:35:00;;;;;;;;;;;;;;;-1.30;82.89;100893.88;5595878;31;33987;-83
2021/12/21 00:38:10;;;;;;;;;;;;;;;-1.33;82.32;100901.75;5596118;31;33573;-83
2021/12/21 00:41:12;;;;;;;;;;;;;;;-1.31;80.93;100899.97;5596354;31;33639;-84
2021/12/21 00:44:15;;;;;;;;;;;;;;;-1.33;80.24;100912.13;5595742;31;33447;-83
2021/12/21 00:47:21;;;;;;;;;;;;;;;-1.35;80.87;100918.28;5596516;31;34404;-83
2021/12/21 00:50:24;;;;;;;;;;;;;;;-1.29;79.58;100938.84;5596205;31;34572;-84
2021/12/21 00:53:27;;;;;;;;;;;;;;;-1.30;78.67;100943.19;5595683;31;33154;-84
2021/12/21 00:56:29;;;;;;;;;;;;;;;-1.38;78.89;100954.72;5596800;31;33383;-83
2021/12/21 00:59:32;;;;;;;;;;;;;;;-1.46;78.89;100952.34;5595292;31;33642;-83
2021/12/21 01:02:35;;;;;;;;;;;;;;;-1.52;79.13;100963.78;5596229;31;33832;-83
2021/12/21 01:06:37;;;;;;;;;;;;;;;-1.48;77.57;100970.56;5594271;31;33590;-83
2021/12/21 01:12:14;;;;;;;;;;;;;;;-1.75;79.55;100975.69;5596377;31;34097;-83
2021/12/21 01:18:24;;;;;;;;;;;;;;;-1.94;80.46;100992.69;5598800;31;33489;-83
2021/12/21 01:21:34;;;;;;;;;;;;;;;-1.96;80.98;100997.06;5594408;31;33887;-83
2021/12/21 01:28:14;;;;;;;;;;;;;;;-2.08;80.85;101011.22;5594244;31;33517;-83
2021/12/21 01:31:26;;;;;;;;;;;;;;;-2.28;82.02;101015.22;5594205;31;33819;-83
2021/12/21 01:40:57;;;;;;;;;;;;;;;-2.26;82.59;101031.59;5594008;31;32953;-83
2021/12/21 01:50:23;;;;;;;;;;;;;;;-2.13;80.66;101039.88;5596537;31;33485;-83
2021/12/21 01:53:26;;;;;;;;;;;;;;;-2.35;82.27;101049.97;5598831;31;33530;-83
2021/12/21 01:56:29;;;;;;;;;;;;;;;-2.46;82.05;101052.00;5596760;31;33589;-83
2021/12/21 01:59:32;;;;;;;;;;;;;;;-2.60;82.61;101050.59;5596573;31;33762;-83
2021/12/21 02:02:35;;;;;;;;;;;;;;;-2.60;82.28;101054.94;5596373;31;32966;-83
2021/12/21 02:05:39;;;;;;;;;;;;;;;-2.69;82.32;101053.41;5596404;31;33779;-83
2021/12/21 02:08:42;;;;;;;;;;;;;;;-2.59;82.01;101051.47;5596672;31;33017;-83
2021/12/21 02:11:44;;;;;;;;;;;;;;;-2.46;81.17;101062.38;5597342;31;33333;-83
2021/12/21 02:14:59;;;;;;;;;;;;;;;-2.28;78.94;101061.88;5596808;31;33160;-82
2021/12/21 02:21:33;;;;;;;;;;;;;;;-2.27;79.18;101054.97;5596340;31;33916;-82
2021/12/21 02:24:46;;;;;;;;;;;;;;;-2.27;78.75;101055.81;5596478;31;33539;-82
2021/12/21 02:30:59;;;;;;;;;;;;;;;-2.38;80.16;101060.41;5601165;31;33719;-83
2021/12/21 02:34:02;;;;;;;;;;;;;;;-2.49;79.31;101053.78;5596774;31;34213;-83
2021/12/21 02:37:05;;;;;;;;;;;;;;;-2.44;78.84;101050.22;5596063;31;33083;-83
2021/12/21 02:40:08;;;;;;;;;;;;;;;-2.52;79.60;101040.87;5596794;31;33611;-83
2021/12/21 02:43:13;;;;;;;;;;;;;;;-2.56;79.21;101041.00;5596545;31;33724;-83
2021/12/21 02:46:16;;;;;;;;;;;;;;;-2.54;79.32;101050.47;5598531;31;33634;-83
2021/12/21 02:49:20;;;;;;;;;;;;;;;-2.56;79.13;101051.38;5596643;31;33591;-83
2021/12/21 02:52:23;;;;;;;;;;;;;;;-2.45;78.15;101066.66;5600051;31;34002;-83
2021/12/21 02:55:26;;;;;;;;;;;;;;;-2.43;77.85;101072.66;5596574;31;33271;-84
2021/12/21 02:58:28;;;;;;;;;;;;;;;-2.41;76.95;101076.03;5596666;31;33638;-83
2021/12/21 03:01:31;;;;;;;;;;;;;;;-2.31;76.34;101074.06;5597017;31;33405;-83
2021/12/21 03:04:33;;;;;;;;;;;;;;;-2.25;75.62;101077.34;5596434;31;34138;-83
2021/12/21 03:11:02;;;;;;;;;;;;;;;-2.28;75.74;101077.44;5596107;31;33621;-83
2021/12/21 03:14:05;;;;;;;;;;;;;;;-2.34;76.27;101067.22;5596220;31;33943;-84
2021/12/21 03:17:10;;;;;;;;;;;;;;;-2.34;75.80;101072.41;5596076;31;34711;-84
2021/12/21 03:20:13;;;;;;;;;;;;;;;-2.37;75.66;101077.66;5597087;31;34023;-83
2021/12/21 03:23:16;;;;;;;;;;;;;;;-2.37;76.29;101077.66;5597181;31;34345;-83
2021/12/21 03:26:19;;;;;;;;;;;;;;;-2.29;75.36;101075.72;5595907;31;33719;-82
2021/12/21 03:29:21;;;;;;;;;;;;;;;-2.35;75.20;101071.56;5597758;31;33714;-83
2021/12/21 03:32:28;;;;;;;;;;;;;;;-2.26;74.28;101074.81;5596140;31;33635;-83
2021/12/21 03:35:34;;;;;;;;;;;;;;;-2.29;75.25;101078.31;5596215;31;33666;-83
2021/12/21 03:38:40;;;;;;;;;;;;;;;-2.37;75.23;101070.75;5596601;31;34420;-83
2021/12/21 03:41:46;;;;;;;;;;;;;;;-2.40;75.47;101077.75;5602151;31;33891;-83
2021/12/21 03:44:49;;;;;;;;;;;;;;;-2.50;75.64;101084.91;5596651;31;33243;-83
2021/12/21 03:47:51;;;;;;;;;;;;;;;-2.53;75.87;101093.59;5596402;31;33465;-83
2021/12/21 03:50:54;;;;;;;;;;;;;;;-2.53;75.75;101103.97;5597603;31;33450;-83
2021/12/21 03:53:57;;;;;;;;;;;;;;;-2.62;76.10;101109.38;5596200;31;34028;-83
2021/12/21 03:57:00;;;;;;;;;;;;;;;-2.70;76.40;101111.31;5595835;31;33522;-83
2021/12/21 04:00:08;;;;;;;;;;;;;;;-2.67;75.99;101112.06;5596379;31;33476;-83
2021/12/21 04:03:11;;;;;;;;;;;;;;;-2.61;75.69;101110.25;5596314;31;34146;-83
2021/12/21 04:06:13;;;;;;;;;;;;;;;-2.71;75.75;101112.19;5595009;31;34271;-83
2021/12/21 04:09:19;;;;;;;;;;;;;;;-2.74;76.10;101114.84;5595553;31;34755;-84
2021/12/21 04:12:24;;;;;;;;;;;;;;;-2.66;75.69;101115.53;5596111;31;34232;-83
2021/12/21 04:15:32;;;;;;;;;;;;;;;-2.73;76.04;101111.37;5595791;31;33611;-83
2021/12/21 04:18:37;;;;;;;;;;;;;;;-2.81;76.58;101115.00;5595360;31;33653;-83
2021/12/21 04:21:40;;;;;;;;;;;;;;;-2.85;76.59;101118.53;5595551;31;33583;-83
2021/12/21 04:24:43;;;;;;;;;;;;;;;-2.77;75.46;101125.28;5596470;31;33198;-83
2021/12/21 04:27:52;;;;;;;;;;;;;;;-2.76;74.88;101122.66;5595839;31;33691;-83
2021/12/21 04:30:55;;;;;;;;;;;;;;;-2.67;74.69;101131.97;5595957;31;34069;-83
2021/12/21 04:33:58;;;;;;;;;;;;;;;-2.68;74.57;101135.44;5595755;31;33706;-83
2021/12/21 04:37:01;;;;;;;;;;;;;;;-2.60;73.50;101132.66;5595775;31;34063;-83
2021/12/21 04:40:07;;;;;;;;;;;;;;;-2.65;73.55;101132.78;5595837;31;33542;-83
2021/12/21 04:43:14;;;;;;;;;;;;;;;-2.64;73.96;101137.03;5595834;31;34592;-83
2021/12/21 04:46:17;;;;;;;;;;;;;;;-2.58;72.41;101130.88;5596536;31;33598;-83
2021/12/21 04:49:19;;;;;;;;;;;;;;;-2.60;72.55;101132.66;5597276;31;34333;-83
2021/12/21 04:52:22;;;;;;;;;;;;;;;-2.55;71.68;101149.81;5602258;31;34166;-83
2021/12/21 04:55:28;;;;;;;;;;;;;;;-2.61;72.34;101136.97;5595443;31;33541;-83
2021/12/21 04:58:31;;;;;;;;;;;;;;;-2.64;72.08;101137.03;5595924;31;34222;-83
2021/12/21 05:01:36;;;;;;;;;;;;;;;-2.67;71.91;101137.12;5594984;31;34559;-83
2021/12/21 05:04:39;;;;;;;;;;;;;;;-2.67;71.87;101140.56;5594669;31;33010;-83
2021/12/21 05:07:46;;;;;;;;;;;;;;;-2.67;72.85;101148.34;5593816;31;34342;-83
2021/12/21 05:10:56;;;;;;;;;;;;;;;-2.70;72.30;101157.94;5594900;31;33563;-83
2021/12/21 05:13:58;;;;;;;;;;;;;;;-2.71;72.65;101157.09;5595757;31;34669;-83
2021/12/21 05:17:00;;;;;;;;;;;;;;;-2.71;72.19;101167.44;5595825;31;34052;-83
2021/12/21 05:20:05;;;;;;;;;;;;;;;-2.67;70.76;101165.63;5596058;31;33655;-83
2021/12/21 05:23:09;;;;;;;;;;;;;;;-2.69;71.51;101173.44;5601304;31;33244;-84
2021/12/21 05:26:14;;;;;;;;;;;;;;;-2.72;71.84;101183.00;5599334;31;33477;-83
2021/12/21 05:29:20;;;;;;;;;;;;;;;-2.68;71.04;101188.09;5596618;31;33759;-84
2021/12/21 05:32:22;;;;;;;;;;;;;;;-2.75;71.84;101183.06;5597272;31;33751;-84
2021/12/21 05:35:28;;;;;;;;;;;;;;;-2.77;71.57;101192.63;5597784;31;33463;-82
2021/12/21 05:38:33;;;;;;;;;;;;;;;-2.72;71.68;101190.78;5596585;31;33753;-82
2021/12/21 05:41:47;;;;;;;;;;;;;;;-2.71;72.17;101187.31;5596487;31;33449;-83
2021/12/21 05:44:50;;;;;;;;;;;;;;;-2.62;70.66;101189.69;5596721;31;33401;-83
2021/12/21 05:47:52;;;;;;;;;;;;;;;-2.61;70.82;101182.78;5596790;31;34221;-83
2021/12/21 05:50:55;;;;;;;;;;;;;;;-2.69;70.96;101185.53;5596624;31;34610;-83
2021/12/21 05:53:57;;;;;;;;;;;;;;;-2.67;70.61;101191.53;5597485;31;33166;-83
2021/12/21 05:57:00;;;;;;;;;;;;;;;-2.66;70.85;101190.66;5598639;31;33574;-83
2021/12/21 06:00:04;;;;;;;;;;;;;;;-2.68;69.92;101192.44;5597757;31;33544;-83
2021/12/21 06:03:10;;;;;;;;;;;;;;;-2.67;69.32;101196.72;5602021;31;33782;-81
2021/12/21 06:06:15;;;;;;;;;;;;;;;-2.83;70.39;101202.22;5597486;31;34570;-82
2021/12/21 06:09:18;;;;;;;;;;;;;;;-2.87;70.24;101205.75;5595980;31;34317;-83
2021/12/21 06:12:41;;;;;;;;;;;;;;;-2.81;69.48;101207.38;5594664;31;33412;-83
2021/12/21 06:25:41;;;;;;;;;;;;;;;-2.65;67.79;101236.41;5595980;31;33903;-83
2021/12/21 06:28:46;;;;;;;;;;;;;;;-2.55;67.36;101235.31;5595730;31;33797;-83
2021/12/21 06:31:48;;;;;;;;;;;;;;;-2.43;66.85;101238.53;5595939;31;34150;-83
2021/12/21 06:34:59;;;;;;;;;;;;;;;-2.42;66.94;101235.88;5595509;31;33794;-83
2021/12/21 06:38:02;;;;;;;;;;;;;;;-2.38;66.63;101236.66;5596313;31;34221;-83
2021/12/21 06:41:05;;;;;;;;;;;;;;;-2.45;67.24;101240.28;5597082;31;33717;-83
2021/12/21 06:44:09;;;;;;;;;;;;;;;-2.58;68.35;101245.75;5597949;31;34311;-83
2021/12/21 06:53:58;;;;;;;;;;;;;;;-2.55;69.43;101250.87;5596025;31;33660;-83
2021/12/21 06:57:03;;;;;;;;;;;;;;;-2.54;70.14;101257.75;5596900;31;34171;-83
2021/12/21 07:00:07;;;;;;;;;;;;;;;-2.57;70.70;101255.22;5596781;31;34087;-83
2021/12/21 07:03:11;;;;;;;;;;;;;;;-2.59;71.51;101261.34;5596198;31;34378;-84
2021/12/21 07:06:16;;;;;;;;;;;;;;;-2.57;71.64;101268.19;5596210;31;33509;-82
2021/12/21 07:19:03;;;;;;;;;;;;;;;-2.56;72.90;101264.69;5597079;31;33638;-85
2021/12/21 07:22:07;;;;;;;;;;;;;;;-2.45;71.54;101261.03;5595027;31;33935;-84
2021/12/21 07:25:10;;;;;;;;;;;;;;;-2.39;71.31;101264.34;5594967;31;33876;-84
2021/12/21 07:28:13;;;;;;;;;;;;;;;-2.43;72.03;101267.03;5594690;31;33519;-84
2021/12/21 07:31:16;;;;;;;;;;;;;;;-2.31;71.47;101271.94;5596932;31;33300;-83
2021/12/21 07:34:18;;;;;;;;;;;;;;;-2.27;71.53;101276.16;5595375;31;34330;-84
2021/12/21 07:37:21;;;;;;;;;;;;;;;-2.28;71.38;101278.78;5595637;31;33185;-83
2021/12/21 07:40:24;;;;;;;;;;;;;;;-2.26;71.44;101283.03;5596163;31;34045;-84
2021/12/21 07:43:27;;;;;;;;;;;;;;;-2.26;71.42;101284.78;5595043;31;33368;-83
2021/12/21 07:46:32;;;;;;;;;;;;;;;-2.15;70.87;101271.56;5595908;31;33833;-84
2021/12/21 07:49:35;;;;;;;;;;;;;;;-2.10;70.67;101269.72;5595502;31;33966;-83
2021/12/21 07:52:39;;;;;;;;;;;;;;;-2.04;70.08;101278.22;5596400;31;34326;-83
2021/12/21 07:55:45;;;;;;;;;;;;;;;-2.05;70.56;101286.03;5598902;31;34758;-84
2021/12/21 07:58:48;;;;;;;;;;;;;;;-2.08;70.82;101292.13;5595858;31;34248;-84
2021/12/21 08:01:52;;;;;;;;;;;;;;;-2.12;71.48;101294.84;5595909;31;34105;-84
2021/12/21 08:04:55;;;;;;;;;;;;;;;-2.13;72.12;101291.37;5596083;31;33817;-84
2021/12/21 08:08:08;;;;;;;;;;;;;;;-2.14;71.74;101283.66;5595459;31;33485;-83
2021/12/21 08:11:27;;;;;;;;;;;;;;;-2.14;71.35;101287.09;5595591;31;32643;-84
2021/12/21 08:14:29;;;;;;;;;;;;;;;-2.14;72.47;101283.66;5596571;31;33815;-84
2021/12/21 08:17:34;;;;;;;;;;;;;;;-1.99;72.20;101296.28;5596832;31;34115;-85
2021/12/21 08:20:37;;;;;;;;;;;;;;;-1.82;70.58;101282.03;5596881;31;33671;-84
2021/12/21 08:23:39;;;;;;;;;;;;;;;-1.75;70.17;101289.62;5596112;31;33718;-84
2021/12/21 08:26:42;;;;;;;;;;;;;;;-1.61;69.22;101291.88;5599420;31;34495;-84
2021/12/21 08:29:45;;;;;;;;;;;;;;;-1.59;69.80;101291.84;5598687;31;34055;-83
2021/12/21 08:32:48;;;;;;;;;;;;;;;-1.57;69.23;101293.50;5596014;31;33557;-83
2021/12/21 08:35:50;;;;;;;;;;;;;;;-1.54;69.57;101302.13;5596391;31;33863;-83
2021/12/21 08:38:53;;;;;;;;;;;;;;;-1.56;69.87;101300.41;5596758;31;33722;-83
2021/12/21 08:41:59;;;;;;;;;;;;;;;-1.59;70.50;101303.06;5596075;31;33745;-84
2021/12/21 08:45:06;;;;;;;;;;;;;;;-1.59;72.81;101310.84;5595704;31;34235;-82
2021/12/21 08:48:12;;;;;;;;;;;;;;;-1.66;73.13;101313.62;5595415;31;33815;-83
2021/12/21 08:51:14;;;;;;;;;;;;;;;-1.53;73.18;101311.59;5596080;31;34450;-83
2021/12/21 08:54:17;;;;;;;;;;;;;;;-1.34;73.56;101315.44;5599412;31;33775;-83
2021/12/21 08:57:20;;;;;;;;;;;;;;;-1.32;74.21;101308.47;5617158;31;33615;-83
2021/12/21 09:00:31;;;;;;;;;;;;;;;-1.18;73.87;101315.88;5617483;31;33733;-84
2021/12/21 09:03:34;;;;;;;;;;;;;;;-1.11;73.71;101321.75;5616702;31;34551;-83
2021/12/21 09:06:38;;;;;;;;;;;;;;;-1.14;74.38;101327.03;5616570;31;34212;-83
2021/12/21 09:09:41;;;;;;;;;;;;;;;-1.14;74.32;101327.03;5616740;31;33535;-83
2021/12/21 09:12:44;;;;;;;;;;;;;;;-1.23;75.20;101327.28;5616580;31;33293;-83
2021/12/21 09:15:49;;;;;;;;;;;;;;;-1.14;74.12;101322.69;5618228;31;34252;-84
2021/12/21 09:18:52;;;;;;;;;;;;;;;-1.04;73.94;101333.69;5619329;31;34238;-84
2021/12/21 09:21:54;;;;;;;;;;;;;;;-0.98;73.53;101328.34;5615886;31;33722;-83
2021/12/21 09:24:59;;;;;;;;;;;;;;;-0.99;73.67;101323.16;5599231;31;33551;-84
2021/12/21 09:28:01;;;;;;;;;;;;;;;-0.98;73.62;101327.47;5597657;31;34124;-83
2021/12/21 09:31:04;;;;;;;;;;;;;;;-0.94;73.87;101314.34;5600428;31;33570;-84
2021/12/21 09:34:11;;;;;;;;;;;;;;;-0.85;73.36;101328.00;5602529;31;34347;-83
2021/12/21 09:37:17;;;;;;;;;;;;;;;-0.78;73.17;101325.16;5599624;31;34872;-84
2021/12/21 09:40:23;;;;;;;;;;;;;;;-0.65;72.27;101319.62;5606484;31;34535;-83
2021/12/21 09:43:29;;;;;;;;;;;;;;;-0.64;72.97;101324.78;5606430;31;36305;-83
2021/12/21 09:46:31;;;;;;;;;;;;;;;-0.58;73.36;101320.28;5602784;31;34676;-82
2021/12/21 09:49:34;;;;;;;;;;;;;;;-0.43;73.17;101319.84;5604205;31;33720;-83
2021/12/21 09:52:37;;;;;;;;;;;;;;;-0.44;73.81;101312.09;5603555;31;33611;-83
2021/12/21 09:55:42;;;;;;;;;;;;;;;-0.37;74.08;101309.25;5600712;31;33107;-84
2021/12/21 09:58:45;;;;;;;;;;;;;;;-0.30;75.13;101301.28;5600094;31;33605;-83
2021/12/21 10:01:47;;;;;;;;;;;;;;;-0.26;76.36;101297.69;5600292;31;33531;-83
2021/12/21 10:04:52;;;;;;;;;;;;;;;-0.20;76.54;101294.91;5602218;31;33959;-83
2021/12/21 10:07:55;;;;;;;;;;;;;;;-0.16;76.35;101288.69;5602263;31;34106;-83
2021/12/21 10:10:59;;;;;;;;;;;;;;;-0.10;77.03;101285.91;5586372;31;33913;-84
2021/12/21 10:14:05;;;;;;;;;;;;;;;-0.08;76.46;101291.94;5600476;31;33664;-84
2021/12/21 10:17:09;;;;;;;;;;;;;;;-0.05;75.11;101285.75;5597069;31;32964;-84
2021/12/21 10:20:13;;;;;;;;;;;;;;;-0.07;75.49;101296.22;5597663;31;33446;-84
2021/12/21 10:23:19;;;;;;;;;;;;;;;-0.07;75.55;101291.03;5597449;31;33443;-84
2021/12/21 10:26:25;;;;;;;;;;;;;;;0.02;75.11;101283.81;5597504;31;34462;-85
2021/12/21 10:29:28;;;;;;;;;;;;;;;0.04;74.79;101288.06;5599933;31;33562;-83
2021/12/21 10:32:31;;;;;;;;;;;;;;;0.02;74.58;101289.03;5597545;31;33904;-83
2021/12/21 10:35:34;;;;;;;;;;;;;;;0.10;74.73;101271.41;5596984;31;33717;-84
2021/12/21 10:38:41;;;;;;;;;;;;;;;0.14;74.26;101271.25;5598197;31;34336;-84
2021/12/21 10:41:45;;;;;;;;;;;;;;;0.13;74.26;101271.31;5597171;31;33990;-83
2021/12/21 10:44:47;;;;;;;;;;;;;;;0.12;73.74;101267.84;5598177;31;33930;-83
2021/12/21 10:47:50;;;;;;;;;;;;;;;0.17;74.07;101262.47;5598552;31;33892;-83
2021/12/21 10:50:52;;;;;;;;;;;;;;;0.24;74.40;101265.75;5599002;31;33755;-83
2021/12/21 10:53:55;;;;;;;;;;;;;;;0.38;73.43;101271.34;5596495;31;33640;-83
2021/12/21 10:57:00;;;;;;;;;;;;;;;0.48;72.39;101264.09;5595852;31;33409;-83
2021/12/21 11:00:14;;;;;;;;;;;;;;;0.47;72.95;101264.97;5597347;31;33544;-82
2021/12/21 11:03:28;;;;;;;;;;;;;;;0.42;73.55;101261.66;5596715;31;33473;-82
2021/12/21 11:06:34;;;;;;;;;;;;;;;0.42;74.05;101251.25;5599450;31;33541;-83
2021/12/21 11:09:37;;;;;;;;;;;;;;;0.35;72.63;101254.97;5596765;31;33785;-85
2021/12/21 11:12:58;;;;;;;;;;;;;;;0.35;73.35;101254.97;5597373;31;33335;-83
2021/12/21 11:16:04;;;;;;;;;;;;;;;0.40;73.34;101247.84;5596212;31;33242;-83
2021/12/21 11:19:07;;;;;;;;;;;;;;;0.44;73.72;101239.91;5596963;31;33915;-83
2021/12/21 11:22:10;;;;;;;;;;;;;;;0.47;73.92;101225.94;5596054;31;33221;-83
2021/12/21 11:25:15;;;;;;;;;;;;;;;0.49;74.19;101226.72;5596003;31;33878;-84
2021/12/21 11:28:21;;;;;;;;;;;;;;;0.44;73.42;101224.28;5597025;31;33697;-84
2021/12/21 11:31:30;;;;;;;;;;;;;;;0.47;73.03;101225.94;5597087;31;33585;-83
2021/12/21 11:34:34;;;;;;;;;;;;;;;0.49;73.16;101231.06;5597654;31;33785;-83
2021/12/21 11:37:37;;;;;;;;;;;;;;;0.48;72.22;101226.75;5597183;31;33420;-83
2021/12/21 11:40:45;;;;;;;;;;;;;;;0.45;72.65;101227.72;5597547;31;34088;-82
2021/12/21 11:44:03;;;;;;;;;;;;;;;0.51;72.23;101230.09;5597380;31;33712;-83
2021/12/21 11:47:09;;;;;;;;;;;;;;;0.48;71.46;101230.22;5595917;31;34076;-83
2021/12/21 11:50:11;;;;;;;;;;;;;;;0.71;71.35;101225.97;5596565;31;33555;-83
2021/12/21 11:53:17;;;;;;;;;;;;;;;0.68;71.95;101233.87;5596786;31;33426;-83
2021/12/21 11:56:22;;;;;;;;;;;;;;;0.69;71.05;101220.78;5597166;31;34115;-84
2021/12/21 11:59:24;;;;;;;;;;;;;;;0.67;70.74;101225.22;5596026;31;33325;-83
2021/12/21 12:02:30;;;;;;;;;;;;;;;0.66;71.34;101222.66;5595766;31;33799;-82
2021/12/21 12:05:34;;;;;;;;;;;;;;;0.61;71.83;101218.47;5597638;31;33687;-84
2021/12/21 12:08:44;;;;;;;;;;;;;;;0.75;72.10;101222.31;5595586;31;34109;-83
2021/12/21 12:11:49;;;;;;;;;;;;;;;0.76;71.33;101224.91;5596655;31;33804;-83
2021/12/21 12:14:59;;;;;;;;;;;;;;;0.83;71.68;101215.09;5595258;31;34030;-83
2021/12/21 12:18:04;;;;;;;;;;;;;;;0.87;70.59;101221.88;5595014;31;33421;-84
2021/12/21 12:21:11;;;;;;;;;;;;;;;0.81;70.63;101222.12;5596542;31;34502;-84
2021/12/21 12:24:18;;;;;;;;;;;;;;;0.83;71.31;101225.53;5581143;31;33143;-85
2021/12/21 12:27:22;;;;;;;;;;;;;;;0.89;71.00;101217.47;5595813;31;33648;-84
2021/12/21 12:30:26;;;;;;;;;;;;;;;0.74;69.62;101224.09;5595415;31;34473;-84
2021/12/21 12:33:39;;;;;;;;;;;;;;;0.66;69.08;101222.66;5595917;31;33658;-83
2021/12/21 12:36:52;;;;;;;;;;;;;;;0.75;68.21;101206.69;5595343;31;34060;-84
2021/12/21 12:39:55;;;;;;;;;;;;;;;0.73;68.11;101208.53;5595405;31;33577;-84
2021/12/21 12:43:01;;;;;;;;;;;;;;;0.70;68.21;101209.47;5595374;31;33802;-84
2021/12/21 12:46:08;;;;;;;;;;;;;;;0.68;68.95;101207.84;5596368;31;34744;-84
2021/12/21 12:49:20;;;;;;;;;;;;;;;0.60;69.42;101208.97;5594761;31;33320;-83
2021/12/21 12:52:28;;;;;;;;;;;;;;;0.67;69.56;101204.41;5594898;31;33762;-83
2021/12/21 12:55:37;;;;;;;;;;;;;;;0.75;69.91;101210.16;5594959;31;33452;-84
2021/12/21 12:59:04;;;;;;;;;;;;;;;0.67;70.42;101203.53;5596398;31;33271;-84
2021/12/21 13:02:09;;;;;;;;;;;;;;;0.80;69.04;101204.78;5595554;31;33976;-83
2021/12/21 13:05:12;;;;;;;;;;;;;;;0.75;69.67;101211.91;5598821;31;33794;-84
2021/12/21 13:08:18;;;;;;;;;;;;;;;0.69;69.93;101212.97;5596107;31;34690;-84
2021/12/21 13:11:25;;;;;;;;;;;;;;;0.52;69.94;101212.75;5595094;31;33960;-84
2021/12/21 13:14:28;;;;;;;;;;;;;;;0.54;69.47;101214.38;5593896;31;33553;-84
2021/12/21 13:17:30;;;;;;;;;;;;;;;0.53;69.89;101215.28;5596976;31;34420;-84
2021/12/21 13:20:35;;;;;;;;;;;;;;;0.46;69.05;101219.84;5599504;31;33607;-84
2021/12/21 13:23:41;;;;;;;;;;;;;;;0.43;69.04;101214.78;5598379;31;34716;-84
2021/12/21 13:26:53;;;;;;;;;;;;;;;0.44;69.04;101219.06;5599803;31;34518;-84
2021/12/21 13:29:59;;;;;;;;;;;;;;;0.44;69.25;101215.59;5596357;31;33639;-84
2021/12/21 13:33:04;;;;;;;;;;;;;;;0.34;69.98;101217.66;5594434;31;33743;-84
2021/12/21 13:36:07;;;;;;;;;;;;;;;0.39;70.47;101220.16;5594563;31;33661;-84
2021/12/21 13:39:21;;;;;;;;;;;;;;;0.28;71.90;101223.09;5594090;31;33020;-84
2021/12/21 13:42:27;;;;;;;;;;;;;;;0.19;72.30;101221.66;5597745;31;33833;-84
2021/12/21 13:45:30;;;;;;;;;;;;;;;0.30;72.14;101211.72;5597250;31;33306;-84
2021/12/21 13:48:33;;;;;;;;;;;;;;;0.30;73.01;101219.53;5598620;31;34387;-84
2021/12/21 13:51:36;;;;;;;;;;;;;;;0.36;72.10;101209.81;5598205;31;33463;-84
2021/12/21 13:54:38;;;;;;;;;;;;;;;0.22;72.90;101212.91;5600181;31;33306;-84
2021/12/21 13:57:43;;;;;;;;;;;;;;;0.12;72.80;101212.38;5599034;31;33259;-84
2021/12/21 14:00:47;;;;;;;;;;;;;;;0.03;73.84;101223.09;5598068;31;33652;-84
2021/12/21 14:03:58;;;;;;;;;;;;;;;-0.04;74.56;101212.03;5597634;31;33435;-84
2021/12/21 14:07:03;;;;;;;;;;;;;;;-0.01;73.37;101212.75;5598159;31;33714;-84
2021/12/21 14:10:11;;;;;;;;;;;;;;;-0.02;73.49;101208.47;5597440;31;33643;-84
2021/12/21 14:13:14;;;;;;;;;;;;;;;-0.09;72.51;101203.50;5597115;31;34388;-84
2021/12/21 14:16:18;;;;;;;;;;;;;;;-0.14;73.22;101211.47;5597919;31;34084;-83
2021/12/21 14:19:23;;;;;;;;;;;;;;;-0.24;73.59;101210.06;5597386;31;33787;-83
2021/12/21 14:22:26;;;;;;;;;;;;;;;-0.23;73.20;101215.25;5596417;31;33826;-83
2021/12/21 14:25:29;;;;;;;;;;;;;;;-0.34;74.21;101206.94;5596803;31;33781;-83
2021/12/21 14:28:44;;;;;;;;;;;;;;;-0.29;73.86;101206.78;5596558;31;33822;-83
2021/12/21 14:32:16;;;;;;;;;;;;;;;-0.39;74.66;101209.63;5597648;31;33541;-83
2021/12/21 14:35:19;;;;;;;;;;;;;;;-0.46;75.06;101213.34;5596118;31;34173;-83
2021/12/21 14:38:21;;;;;;;;;;;;;;;-0.53;75.68;101214.44;5596717;31;33868;-83
2021/12/21 14:41:28;;;;;;;;;;;;;;;-0.55;76.36;101221.44;5595753;31;33509;-83
2021/12/21 14:44:39;;;;;;;;;;;;;;;-0.60;76.86;101225.91;5597250;31;34058;-83
2021/12/21 14:47:47;;;;;;;;;;;;;;;-0.70;77.51;101223.59;5596202;31;33899;-83
2021/12/21 14:50:53;;;;;;;;;;;;;;;-0.82;78.24;101221.34;5595185;31;33305;-84
2021/12/21 14:54:03;;;;;;;;;;;;;;;-0.83;78.70;101227.44;5596309;31;33425;-83
2021/12/21 14:57:06;;;;;;;;;;;;;;;-0.94;79.27;101217.38;5595347;31;33915;-83
2021/12/21 15:00:11;;;;;;;;;;;;;;;-1.10;80.64;101225.59;5595034;31;33715;-83
2021/12/21 15:03:16;;;;;;;;;;;;;;;-1.09;80.60;101223.87;5595830;31;33551;-83
2021/12/21 15:06:19;;;;;;;;;;;;;;;-1.12;81.03;101231.75;5594985;31;33767;-84
2021/12/21 15:09:21;;;;;;;;;;;;;;;-1.11;80.86;101228.25;5595183;31;33680;-83
2021/12/21 15:12:24;;;;;;;;;;;;;;;-1.07;80.55;101237.69;5594869;31;33527;-83
2021/12/21 15:15:27;;;;;;;;;;;;;;;-1.04;80.75;101249.72;5597424;31;33938;-83
2021/12/21 15:18:32;;;;;;;;;;;;;;;-1.02;81.16;101248.78;5596461;31;33711;-83
2021/12/21 15:21:35;;;;;;;;;;;;;;;-1.12;81.44;101247.34;5596073;31;34330;-83
2021/12/21 15:24:40;;;;;;;;;;;;;;;-1.09;81.93;101252.44;5596713;31;33644;-83
2021/12/21 15:27:46;;;;;;;;;;;;;;;-1.13;82.21;101245.62;5595866;31;33620;-83
2021/12/21 15:30:49;;;;;;;;;;;;;;;-1.15;82.43;101242.22;5595742;31;33284;-83
2021/12/21 15:33:51;;;;;;;;;;;;;;;-1.23;83.30;101242.41;5595048;31;32068;-83
2021/12/21 15:36:54;;;;;;;;;;;;;;;-1.27;83.57;101239.06;5597270;31;32187;-82
2021/12/21 15:40:03;;;;;;;;;;;;;;;-1.25;84.26;101247.66;5599868;31;33516;-82
2021/12/21 15:43:07;;;;;;;;;;;;;;;-1.30;83.83;101246.97;5599948;31;33818;-83
2021/12/21 15:46:10;;;;;;;;;;;;;;;-1.29;84.24;101251.22;5597883;31;34759;-83
2021/12/21 15:49:15;;;;;;;;;;;;;;;-1.47;85.27;101249.12;5595984;31;34651;-83
2021/12/21 15:52:22;;;;;;;;;;;;;;;-1.49;86.06;101248.31;5596146;31;33407;-83
2021/12/21 15:55:27;;;;;;;;;;;;;;;-1.53;86.31;101244.97;5596794;31;33774;-83
2021/12/21 15:58:30;;;;;;;;;;;;;;;-1.51;85.90;101244.91;5595548;31;34351;-83
2021/12/21 16:01:33;;;;;;;;;;;;;;;-1.41;85.34;101246.41;5595936;31;34054;-83
2021/12/21 16:04:38;;;;;;;;;;;;;;;-1.41;85.46;101249.84;5595260;31;34067;-83
2021/12/21 16:07:46;;;;;;;;;;;;;;;-1.41;85.38;101247.22;5595009;31;33816;-83
2021/12/21 16:10:49;;;;;;;;;;;;;;;-1.48;85.81;101245.72;5595069;31;35024;-83
2021/12/21 16:13:51;;;;;;;;;;;;;;;-1.48;85.66;101239.66;5595964;31;33731;-83
2021/12/21 16:16:55;;;;;;;;;;;;;;;-1.50;85.62;101244.03;5595414;31;33696;-83
2021/12/21 16:19:58;;;;;;;;;;;;;;;-1.49;85.34;101241.41;5596060;31;34146;-83
2021/12/21 16:23:01;;;;;;;;;;;;;;;-1.53;85.57;101244.13;5595795;31;33573;-83
2021/12/21 16:26:05;;;;;;;;;;;;;;;-1.53;85.34;101246.72;5596192;31;33221;-83
2021/12/21 16:29:07;;;;;;;;;;;;;;;-1.57;85.72;101238.13;5595414;31;33626;-83
2021/12/21 16:32:10;;;;;;;;;;;;;;;-1.62;86.03;101240.84;5595426;31;33662;-83
2021/12/21 16:35:12;;;;;;;;;;;;;;;-1.60;85.73;101249.47;5595113;31;33603;-82
2021/12/21 16:38:15;;;;;;;;;;;;;;;-1.51;84.85;101240.59;5595800;31;34193;-83
2021/12/21 16:41:20;;;;;;;;;;;;;;;-1.65;85.08;101258.25;5595542;31;33515;-83
2021/12/21 16:44:22;;;;;;;;;;;;;;;-1.70;85.42;101255.78;5596598;31;34281;-83
2021/12/21 16:47:28;;;;;;;;;;;;;;;-1.80;85.89;101251.72;5595091;31;33589;-83
2021/12/21 16:50:31;;;;;;;;;;;;;;;-1.70;85.79;101253.19;5595957;31;33630;-83
2021/12/21 16:53:34;;;;;;;;;;;;;;;-1.83;86.14;101254.37;5596965;31;33607;-84
2021/12/21 16:56:36;;;;;;;;;;;;;;;-2.05;87.45;101249.72;5600340;31;34102;-83